createdAt,value
2022-10-19T00:01:06.332Z,69.09
2022-10-19T00:03:33.456Z,68.67
2022-10-19T00:06:00.531Z,68.91
2022-10-19T00:08:28.286Z,69.51
2022-10-19T00:10:54.805Z,68.93
2022-10-19T00:13:23.770Z,68.92
2022-10-19T00:15:50.306Z,69.70
2022-10-19T00:18:17.275Z,69.15
2022-10-19T00:20:43.919Z,69.29
2022-10-19T00:23:11.198Z,68.40
2022-10-19T00:25:38.560Z,68.75
2022-10-19T00:28:05.192Z,69.17
2022-10-19T00:30:36.915Z,69.22
2022-10-19T00:33:04.095Z,69.17
2022-10-19T00:35:31.157Z,69.30
2022-10-19T00:37:57.755Z,69.64
2022-10-19T00:40:25.583Z,69.20
2022-10-19T00:42:54.915Z,70.10
2022-10-19T00:45:22.262Z,69.78
2022-10-19T00:47:50.699Z,70.82
2022-10-19T00:50:17.578Z,69.72
2022-10-19T00:52:45.044Z,70.34
2022-10-19T00:55:12.886Z,70.61
2022-10-19T00:57:39.762Z,69.85
2022-10-19T01:00:08.340Z,70.11
2022-10-19T01:02:35.769Z,69.46
2022-10-19T01:05:05.075Z,69.85
2022-10-19T01:07:33.504Z,70.26
2022-10-19T01:10:01.515Z,70.97
2022-10-19T01:12:58.507Z,70.61
2022-10-19T01:15:37.567Z,71.22
2022-10-19T01:18:15.179Z,72.37
2022-10-19T01:21:03.344Z,71.48
2022-10-19T01:24:08.845Z,71.48
2022-10-19T01:26:53.236Z,70.30
2022-10-19T01:29:38.581Z,70.18
2022-10-19T01:32:11.759Z,69.98
2022-10-19T01:34:45.469Z,70.29
2022-10-19T01:37:19.737Z,69.87
2022-10-19T01:39:53.620Z,69.98
2022-10-19T01:42:29.733Z,70.78
2022-10-19T01:45:03.903Z,71.28
2022-10-19T01:47:40.096Z,70.70
2022-10-19T01:50:13.685Z,71.25
2022-10-19T01:52:44.493Z,71.06
2022-10-19T01:55:14.767Z,70.52
2022-10-19T01:57:47.282Z,71.40
2022-10-19T02:00:16.624Z,70.95
2022-10-19T02:02:48.644Z,72.47
2022-10-19T02:05:17.213Z,71.50
2022-10-19T02:07:49.057Z,71.87
2022-10-19T02:10:15.821Z,72.71
2022-10-19T02:12:43.420Z,71.75
2022-10-19T02:15:14.484Z,71.77
2022-10-19T02:17:47.351Z,72.99
2022-10-19T02:20:14.861Z,71.50
2022-10-19T02:22:42.348Z,71.32
2022-10-19T02:25:10.583Z,71.69
2022-10-19T02:27:39.248Z,72.95
2022-10-19T02:30:07.788Z,71.76
2022-10-19T02:32:34.877Z,71.56
2022-10-19T02:35:03.314Z,71.94
2022-10-19T02:37:29.929Z,71.61
2022-10-19T02:39:56.729Z,72.81
2022-10-19T02:42:30.036Z,73.15
2022-10-19T02:45:00.455Z,73.16
2022-10-19T02:47:31.723Z,72.45
2022-10-19T02:49:58.908Z,73.83
2022-10-19T02:52:27.394Z,73.86
2022-10-19T02:54:55.075Z,73.17
2022-10-19T02:57:23.959Z,74.16
2022-10-19T02:59:51.343Z,73.92
2022-10-19T03:02:19.249Z,73.38
2022-10-19T03:07:17.966Z,73.55
2022-10-19T03:09:46.529Z,74.01
2022-10-19T03:12:14.437Z,73.42
2022-10-19T03:14:41.906Z,73.41
2022-10-19T03:17:09.273Z,73.04
2022-10-19T03:19:36.355Z,72.40
2022-10-19T03:22:02.980Z,73.07
2022-10-19T03:24:30.162Z,73.21
2022-10-19T03:26:58.144Z,73.28
2022-10-19T03:29:25.053Z,73.12
2022-10-19T03:31:51.640Z,73.98
2022-10-19T03:34:18.238Z,73.58
2022-10-19T03:36:44.800Z,73.39
2022-10-19T03:39:13.651Z,74.93
2022-10-19T03:41:40.626Z,73.69
2022-10-19T03:44:09.839Z,73.28
2022-10-19T03:46:37.802Z,73.70
2022-10-19T03:49:06.048Z,74.31
2022-10-19T03:51:33.252Z,74.39
2022-10-19T03:54:02.007Z,72.89
2022-10-19T03:56:30.349Z,72.97
2022-10-19T03:58:58.919Z,72.62
2022-10-19T04:01:29.805Z,73.69
2022-10-19T04:03:58.411Z,74.21
2022-10-19T04:06:27.111Z,74.06
2022-10-19T04:08:54.808Z,73.61
2022-10-19T04:11:24.032Z,73.97
2022-10-19T04:13:51.657Z,74.29
2022-10-19T04:16:20.183Z,74.40
2022-10-19T04:18:48.603Z,74.36
2022-10-19T04:21:23.595Z,74.04
2022-10-19T04:23:52.492Z,73.26
2022-10-19T04:26:19.813Z,73.97
2022-10-19T04:28:46.817Z,73.40
2022-10-19T04:31:14.374Z,73.12
2022-10-19T04:33:41.882Z,73.62
2022-10-19T04:36:11.965Z,73.24
2022-10-19T04:38:39.899Z,73.10
2022-10-19T04:41:09.805Z,74.16
2022-10-19T04:43:37.883Z,74.39
2022-10-19T04:46:09.080Z,74.31
2022-10-19T04:48:37.544Z,73.04
2022-10-19T04:51:08.018Z,72.34
2022-10-19T04:53:37.721Z,72.11
2022-10-19T04:56:05.919Z,72.65
2022-10-19T04:58:33.064Z,73.33
2022-10-19T05:01:06.522Z,74.26
2022-10-19T05:03:33.192Z,74.13
2022-10-19T05:06:02.399Z,74.91
2022-10-19T05:08:29.015Z,74.81
2022-10-19T05:11:00.686Z,74.49
2022-10-19T05:13:27.623Z,74.40
2022-10-19T05:15:57.681Z,74.75
2022-10-19T05:18:24.714Z,74.85
2022-10-19T05:20:51.527Z,74.51
2022-10-19T05:23:18.047Z,74.48
2022-10-19T05:25:44.819Z,75.23
2022-10-19T05:28:12.956Z,74.40
2022-10-19T05:30:39.623Z,74.48
2022-10-19T05:33:06.520Z,75.26
2022-10-19T05:35:34.493Z,74.27
2022-10-19T05:38:01.016Z,75.83
2022-10-19T05:40:27.694Z,75.19
2022-10-19T05:42:54.262Z,74.81
2022-10-19T05:45:22.326Z,74.72
2022-10-19T05:47:49.153Z,75.61
2022-10-19T05:50:16.339Z,74.29
2022-10-19T05:52:43.498Z,75.48
2022-10-19T05:55:10.056Z,74.58
2022-10-19T05:57:37.006Z,74.97
2022-10-19T06:00:06.258Z,74.42
2022-10-19T06:02:34.689Z,75.05
2022-10-19T06:05:01.292Z,74.96
2022-10-19T06:07:28.239Z,74.77
2022-10-19T06:09:56.654Z,74.27
2022-10-19T06:12:25.052Z,74.92
2022-10-19T06:14:51.941Z,74.50
2022-10-19T06:17:18.744Z,74.24
2022-10-19T06:19:47.777Z,74.52
2022-10-19T06:22:14.438Z,74.57
2022-10-19T06:24:41.381Z,74.23
2022-10-19T06:27:07.948Z,74.74
2022-10-19T06:29:35.188Z,73.77
2022-10-19T06:32:01.940Z,73.78
2022-10-19T06:34:28.644Z,73.27
2022-10-19T06:36:57.226Z,72.98
2022-10-19T06:39:23.804Z,72.89
2022-10-19T06:41:50.601Z,73.61
2022-10-19T06:44:17.659Z,72.81
2022-10-19T06:46:44.489Z,72.04
2022-10-19T06:49:13.578Z,71.27
2022-10-19T06:51:40.148Z,70.70
2022-10-19T06:54:09.373Z,69.30
2022-10-19T06:56:36.493Z,68.72
2022-10-19T06:59:04.643Z,68.26
2022-10-19T07:01:31.364Z,67.71
2022-10-19T07:03:57.933Z,67.83
2022-10-19T07:06:27.799Z,67.55
2022-10-19T07:08:54.558Z,66.78
2022-10-19T07:11:22.669Z,66.80
2022-10-19T07:13:50.670Z,65.40
2022-10-19T07:16:20.940Z,64.76
2022-10-19T07:18:49.790Z,63.79
2022-10-19T07:21:18.101Z,63.29
2022-10-19T07:23:46.203Z,62.98
2022-10-19T07:26:16.652Z,62.38
2022-10-19T07:28:47.124Z,62.56
2022-10-19T07:31:15.693Z,62.30
2022-10-19T07:33:42.648Z,61.72
2022-10-19T07:36:10.668Z,60.31
2022-10-19T07:38:37.846Z,60.91
2022-10-19T07:41:06.608Z,60.63
2022-10-19T07:43:34.505Z,60.66
2022-10-19T07:46:06.647Z,60.83
2022-10-19T07:48:34.244Z,61.00
2022-10-19T07:51:01.896Z,60.82
2022-10-19T07:53:29.023Z,59.95
2022-10-19T07:55:56.063Z,60.10
2022-10-19T07:58:23.992Z,58.83
2022-10-19T08:00:51.013Z,58.92
2022-10-19T08:04:03.593Z,58.28
2022-10-19T08:06:09.359Z,59.92
2022-10-19T08:08:37.132Z,59.05
2022-10-19T08:11:07.229Z,58.33
2022-10-19T08:13:33.862Z,58.74
2022-10-19T08:16:01.311Z,57.28
2022-10-19T08:18:29.788Z,57.64
2022-10-19T08:20:56.324Z,56.14
2022-10-19T08:23:23.390Z,57.44
2022-10-19T08:25:50.652Z,56.90
2022-10-19T08:28:17.682Z,58.09
2022-10-19T08:30:44.549Z,56.41
2022-10-19T08:33:11.277Z,58.00
2022-10-19T08:35:41.769Z,56.54
2022-10-19T08:38:09.012Z,56.95
2022-10-19T08:40:35.612Z,57.71
2022-10-19T08:43:06.756Z,57.92
2022-10-19T08:45:42.545Z,58.39
2022-10-19T08:48:24.147Z,57.09
2022-10-19T08:50:53.226Z,56.39
2022-10-19T08:53:27.100Z,56.07
2022-10-19T08:56:26.888Z,55.65
2022-10-19T08:59:13.342Z,55.61
2022-10-19T09:01:44.023Z,53.85
2022-10-19T09:04:19.632Z,54.84
2022-10-19T09:06:58.099Z,54.09
2022-10-19T09:09:27.224Z,53.50
2022-10-19T09:11:58.450Z,53.77
2022-10-19T09:14:30.616Z,53.56
2022-10-19T09:17:02.625Z,53.33
2022-10-19T09:19:30.772Z,54.32
2022-10-19T09:22:02.812Z,54.52
2022-10-19T09:24:35.777Z,53.65
2022-10-19T09:27:02.985Z,54.33
2022-10-19T09:29:37.443Z,53.69
2022-10-19T09:32:10.205Z,54.74
2022-10-19T09:34:43.541Z,54.79
2022-10-19T09:37:18.822Z,54.42
2022-10-19T09:39:54.806Z,54.05
2022-10-19T09:42:25.636Z,54.71
2022-10-19T09:44:54.599Z,53.77
2022-10-19T09:47:38.799Z,54.06
2022-10-19T09:50:21.168Z,53.26
2022-10-19T09:52:52.013Z,52.02
2022-10-19T09:55:28.262Z,52.77
2022-10-19T09:58:06.464Z,51.70
2022-10-19T10:00:37.545Z,51.69
2022-10-19T10:03:05.801Z,51.84
2022-10-19T10:05:34.094Z,53.76
2022-10-19T10:08:02.868Z,53.87
2022-10-19T10:10:35.952Z,51.70
2022-10-19T10:13:04.377Z,53.72
2022-10-19T10:15:43.220Z,53.04
2022-10-19T10:18:16.796Z,52.65
2022-10-19T10:23:36.178Z,52.40
2022-10-19T10:26:05.755Z,52.55
2022-10-19T10:28:32.460Z,49.95
2022-10-19T10:31:01.927Z,49.23
2022-10-19T10:33:44.351Z,51.32
2022-10-19T10:36:13.303Z,50.40
2022-10-19T10:38:51.753Z,49.36
2022-10-19T10:41:21.390Z,49.51
2022-10-19T10:43:56.677Z,49.84
2022-10-19T10:46:28.109Z,49.66
2022-10-19T10:48:58.204Z,48.97
2022-10-19T10:51:33.154Z,49.98
2022-10-19T10:54:15.531Z,49.40
2022-10-19T10:56:43.283Z,49.42
2022-10-19T10:59:15.485Z,49.28
2022-10-19T11:01:57.329Z,49.05
2022-10-19T11:04:29.866Z,49.04
2022-10-19T11:07:01.283Z,49.17
2022-10-19T11:09:36.381Z,49.79
2022-10-19T11:12:05.472Z,49.27
2022-10-19T11:14:38.614Z,48.22
2022-10-19T11:17:11.067Z,49.20
2022-10-19T11:19:42.283Z,49.61
2022-10-19T11:22:25.045Z,49.04
2022-10-19T11:25:07.768Z,49.38
2022-10-19T11:27:45.477Z,49.43
2022-10-19T11:30:15.331Z,47.30
2022-10-19T11:32:50.027Z,48.15
2022-10-19T11:35:32.114Z,48.46
2022-10-19T11:38:20.024Z,47.01
2022-10-19T11:41:16.941Z,46.81
2022-10-19T11:43:58.415Z,47.07
2022-10-19T11:46:30.381Z,47.08
2022-10-19T11:49:17.022Z,46.93
2022-10-19T11:51:50.354Z,46.84
2022-10-19T11:54:32.473Z,46.32
2022-10-19T11:57:11.430Z,46.35
2022-10-19T11:59:52.686Z,45.45
2022-10-19T12:02:46.982Z,45.34
2022-10-19T12:05:19.179Z,45.67
2022-10-19T12:08:01.323Z,44.80
2022-10-19T12:10:34.673Z,45.01
2022-10-19T12:13:08.996Z,45.38
2022-10-19T12:15:39.801Z,44.71
2022-10-19T12:18:14.285Z,45.63
2022-10-19T12:20:47.765Z,44.98
2022-10-19T12:23:23.712Z,44.62
2022-10-19T12:25:51.647Z,43.86
2022-10-19T12:28:23.603Z,45.50
2022-10-19T12:30:52.878Z,46.69
2022-10-19T12:33:24.747Z,46.10
2022-10-19T12:36:12.670Z,45.21
2022-10-19T12:38:48.182Z,44.68
2022-10-19T12:41:24.998Z,44.65
2022-10-19T12:44:06.721Z,44.49
2022-10-19T12:46:41.928Z,44.71
2022-10-19T12:49:43.446Z,44.64
2022-10-19T12:52:11.574Z,44.24
2022-10-19T12:54:40.998Z,45.24
2022-10-19T12:57:31.251Z,45.27
2022-10-19T13:00:02.255Z,44.73
2022-10-19T13:05:07.432Z,44.05
2022-10-19T13:07:36.587Z,43.75
2022-10-19T13:10:06.741Z,43.52
2022-10-19T13:12:46.813Z,43.89
2022-10-19T13:15:56.937Z,43.54
2022-10-19T13:19:06.307Z,43.89
2022-10-19T13:22:23.612Z,43.48
2022-10-19T13:25:20.462Z,43.76
2022-10-19T13:27:48.569Z,43.57
2022-10-19T13:30:53.913Z,44.83
2022-10-19T13:33:47.610Z,44.34
2022-10-19T13:36:14.586Z,44.90
2022-10-19T13:39:04.112Z,45.49
2022-10-19T13:41:50.146Z,44.69
2022-10-19T13:44:27.422Z,44.11
2022-10-19T13:47:08.490Z,45.14
2022-10-19T13:50:04.359Z,45.95
2022-10-19T13:53:17.590Z,45.88
2022-10-19T13:56:20.399Z,45.62
2022-10-19T13:59:23.805Z,45.74
2022-10-19T14:02:09.272Z,46.92
2022-10-19T14:04:45.095Z,46.47
2022-10-19T14:07:18.042Z,45.68
2022-10-19T14:10:00.342Z,46.16
2022-10-19T14:12:32.680Z,45.79
2022-10-19T14:14:59.583Z,46.02
2022-10-19T14:17:31.106Z,45.83
2022-10-19T14:19:59.743Z,47.14
2022-10-19T14:22:30.383Z,48.47
2022-10-19T14:25:04.068Z,49.98
2022-10-19T14:27:33.687Z,49.89
2022-10-19T14:30:01.049Z,49.22
2022-10-19T14:32:29.552Z,50.32
2022-10-19T14:37:29.759Z,52.26
2022-10-19T14:40:05.566Z,51.26
2022-10-19T14:42:39.880Z,51.75
2022-10-19T14:45:16.510Z,52.65
2022-10-19T14:47:52.248Z,52.37
2022-10-19T14:50:20.002Z,52.40
2022-10-19T14:52:49.275Z,52.35
2022-10-19T14:55:21.104Z,52.28
2022-10-19T14:57:53.220Z,52.42
2022-10-19T15:00:22.137Z,53.23
2022-10-19T15:02:57.438Z,53.08
2022-10-19T15:05:27.057Z,54.15
2022-10-19T15:07:54.385Z,54.42
2022-10-19T15:10:25.582Z,53.54
2022-10-19T15:13:05.203Z,53.19
2022-10-19T15:15:34.423Z,53.45
2022-10-19T15:18:05.605Z,53.41
2022-10-19T15:20:44.257Z,55.02
2022-10-19T15:23:34.165Z,54.46
2022-10-19T15:26:02.371Z,54.00
2022-10-19T15:28:40.609Z,54.86
2022-10-19T15:31:15.877Z,54.61
2022-10-19T15:33:47.219Z,54.10
2022-10-19T15:36:13.883Z,54.48
2022-10-19T15:38:41.205Z,54.75
2022-10-19T15:41:15.457Z,54.58
2022-10-19T15:43:49.879Z,53.83
2022-10-19T15:46:28.381Z,55.11
2022-10-19T15:48:56.203Z,55.51
2022-10-19T15:51:43.500Z,54.88
2022-10-19T15:54:13.010Z,56.03
2022-10-19T15:56:41.729Z,55.97
2022-10-19T15:59:15.224Z,56.51
2022-10-19T16:01:42.784Z,57.05
2022-10-19T16:04:09.699Z,56.70
2022-10-19T16:06:39.730Z,57.54
2022-10-19T16:09:07.739Z,57.31
2022-10-19T16:11:35.572Z,58.02
2022-10-19T16:14:03.610Z,58.77
2022-10-19T16:16:32.778Z,58.56
2022-10-19T16:19:01.071Z,59.48
2022-10-19T16:21:31.422Z,59.78
2022-10-19T16:23:58.208Z,60.08
2022-10-19T16:26:25.104Z,60.35
2022-10-19T16:28:51.938Z,60.36
2022-10-19T16:31:18.980Z,61.10
2022-10-19T16:33:47.142Z,61.50
2022-10-19T16:36:17.199Z,61.22
2022-10-19T16:38:45.388Z,62.16
2022-10-19T16:41:12.517Z,62.52
2022-10-19T16:43:39.362Z,62.00
2022-10-19T16:46:06.850Z,61.90
2022-10-19T16:48:34.307Z,62.45
2022-10-19T16:51:27.857Z,62.98
2022-10-19T16:53:56.630Z,62.46
2022-10-19T16:56:24.633Z,63.45
2022-10-19T16:58:54.044Z,63.50
2022-10-19T17:01:21.741Z,63.35
2022-10-19T17:03:48.824Z,62.77
2022-10-19T17:06:16.300Z,62.57
2022-10-19T17:11:37.050Z,63.26
2022-10-19T17:14:07.086Z,64.09
2022-10-19T17:16:35.351Z,62.64
2022-10-19T17:19:03.898Z,62.60
2022-10-19T17:21:33.523Z,62.48
2022-10-19T17:24:02.923Z,62.76
2022-10-19T17:26:32.848Z,62.45
2022-10-19T17:29:00.520Z,62.38
2022-10-19T17:31:28.272Z,62.52
2022-10-19T17:33:55.156Z,62.85
2022-10-19T17:36:23.866Z,62.62
2022-10-19T17:38:52.067Z,62.70
2022-10-19T17:41:20.897Z,63.31
2022-10-19T17:43:49.050Z,63.93
2022-10-19T17:46:17.434Z,64.15
2022-10-19T17:48:44.509Z,63.82
2022-10-19T17:51:14.480Z,64.55
2022-10-19T17:53:44.461Z,63.83
2022-10-19T17:56:12.971Z,64.11
2022-10-19T17:58:42.960Z,64.25
2022-10-19T18:01:11.067Z,63.20
2022-10-19T18:03:39.210Z,63.08
2022-10-19T18:06:10.945Z,63.53
2022-10-19T18:08:40.536Z,63.89
2022-10-19T18:11:09.989Z,64.51
2022-10-19T18:16:09.619Z,62.98
2022-10-19T18:18:40.795Z,63.14
2022-10-19T18:21:10.809Z,63.50
2022-10-19T18:23:48.077Z,62.78
2022-10-19T18:26:17.841Z,62.05
2022-10-19T18:28:46.656Z,62.36
2022-10-19T18:31:32.395Z,61.74
2022-10-19T18:34:02.883Z,61.32
2022-10-19T18:36:32.033Z,61.34
2022-10-19T18:39:01.102Z,60.66
2022-10-19T18:41:29.043Z,60.48
2022-10-19T18:43:58.001Z,60.65
2022-10-19T18:46:25.952Z,60.70
2022-10-19T18:48:54.843Z,60.19
2022-10-19T18:51:23.113Z,59.97
2022-10-19T18:53:51.221Z,59.97
2022-10-19T18:56:20.504Z,59.77
2022-10-19T18:58:48.633Z,59.70
2022-10-19T19:01:18.302Z,59.83
2022-10-19T19:03:47.131Z,59.78
2022-10-19T19:06:18.395Z,59.60
2022-10-19T19:08:48.991Z,59.85
2022-10-19T19:11:17.701Z,59.52
2022-10-19T19:13:48.632Z,59.69
2022-10-19T19:16:15.730Z,59.51
2022-10-19T19:18:42.706Z,59.62
2022-10-19T19:21:17.774Z,60.25
2022-10-19T19:23:45.040Z,59.88
2022-10-19T19:26:13.469Z,60.10
2022-10-19T19:28:42.886Z,60.58
2022-10-19T19:31:13.167Z,60.13
2022-10-19T19:33:40.155Z,60.38
2022-10-19T19:36:09.651Z,60.82
2022-10-19T19:38:37.678Z,60.75
2022-10-19T19:41:04.664Z,61.35
2022-10-19T19:43:33.534Z,61.42
2022-10-19T19:46:06.272Z,61.59
2022-10-19T19:48:35.531Z,61.30
2022-10-19T19:51:02.664Z,61.14
2022-10-19T19:53:29.228Z,61.58
2022-10-19T19:55:57.195Z,61.58
2022-10-19T19:58:23.833Z,61.91
2022-10-19T20:00:50.986Z,61.99
2022-10-19T20:03:17.896Z,61.85
2022-10-19T20:05:47.982Z,62.04
2022-10-19T20:08:14.665Z,62.01
2022-10-19T20:10:42.796Z,62.36
2022-10-19T20:13:10.732Z,62.32
2022-10-19T20:15:38.945Z,61.99
2022-10-19T20:18:06.991Z,61.98
2022-10-19T20:20:33.611Z,61.98
2022-10-19T20:23:00.144Z,62.47
2022-10-19T20:25:26.756Z,62.31
2022-10-19T20:27:54.134Z,62.39
2022-10-19T20:30:22.358Z,63.14
2022-10-19T20:32:54.809Z,62.99
2022-10-19T20:35:21.496Z,62.59
2022-10-19T20:37:49.015Z,62.80
2022-10-19T20:40:17.831Z,62.85
2022-10-19T20:42:45.057Z,62.61
2022-10-19T20:45:12.096Z,62.38
2022-10-19T20:47:40.627Z,63.04
2022-10-19T20:50:09.165Z,63.19
2022-10-19T20:52:36.938Z,62.83
2022-10-19T20:55:04.212Z,63.35
2022-10-19T20:57:31.140Z,63.48
2022-10-19T20:59:58.036Z,63.09
2022-10-19T21:02:24.771Z,63.51
2022-10-19T21:04:52.905Z,63.58
2022-10-19T21:07:19.443Z,63.27
2022-10-19T21:09:47.465Z,63.79
2022-10-19T21:12:14.066Z,63.24
2022-10-19T21:14:42.154Z,63.56
2022-10-19T21:17:09.754Z,63.01
2022-10-19T21:19:36.894Z,63.33
2022-10-19T21:22:05.658Z,63.09
2022-10-19T21:24:35.131Z,62.88
2022-10-19T21:27:04.113Z,62.94
2022-10-19T21:29:31.137Z,62.96
2022-10-19T21:31:58.216Z,62.93
2022-10-19T21:34:26.727Z,63.13
2022-10-19T21:36:54.478Z,63.42
2022-10-19T21:39:23.090Z,63.48
2022-10-19T21:41:50.323Z,63.44
2022-10-19T21:44:18.269Z,63.00
2022-10-19T21:46:47.599Z,63.16
2022-10-19T21:49:14.480Z,63.38
2022-10-19T21:51:44.191Z,63.18
2022-10-19T21:54:14.204Z,63.51
2022-10-19T21:56:42.893Z,63.68
2022-10-19T21:59:10.290Z,63.83
2022-10-19T22:01:40.360Z,64.30
2022-10-19T22:04:13.040Z,64.85
2022-10-19T22:06:40.490Z,64.80
2022-10-19T22:09:09.207Z,64.52
2022-10-19T22:11:36.211Z,64.44
2022-10-19T22:14:05.060Z,64.75
2022-10-19T22:16:35.266Z,65.77
2022-10-19T22:19:02.092Z,65.39
2022-10-19T22:21:31.400Z,65.47
2022-10-19T22:24:00.272Z,65.50
2022-10-19T22:26:30.410Z,65.60
2022-10-19T22:28:58.486Z,65.35
2022-10-19T22:31:28.261Z,65.32
2022-10-19T22:33:55.215Z,65.25
2022-10-19T22:36:23.394Z,65.35
2022-10-19T22:38:50.095Z,65.68
2022-10-19T22:41:17.220Z,65.72
2022-10-19T22:43:46.688Z,65.66
2022-10-19T22:46:15.871Z,65.71
2022-10-19T22:48:44.208Z,66.33
2022-10-19T22:51:10.904Z,65.77
2022-10-19T22:53:37.414Z,65.41
2022-10-19T22:56:05.130Z,66.25
2022-10-19T23:03:28.754Z,65.87
2022-10-19T23:05:57.083Z,65.32
2022-10-19T23:08:24.115Z,65.18
2022-10-19T23:10:52.762Z,66.24
2022-10-19T23:13:19.394Z,65.87
2022-10-19T23:15:45.984Z,65.95
2022-10-19T23:18:13.396Z,66.03
2022-10-19T23:20:39.958Z,65.67
2022-10-19T23:23:08.505Z,65.71
2022-10-19T23:25:36.444Z,66.17
2022-10-19T23:28:05.760Z,65.88
2022-10-19T23:30:36.914Z,66.24
2022-10-19T23:33:04.116Z,66.17
2022-10-19T23:35:30.747Z,66.07
2022-10-19T23:37:57.604Z,66.68
2022-10-19T23:40:25.770Z,65.87
2022-10-19T23:42:53.636Z,66.32
2022-10-19T23:45:20.139Z,65.82
2022-10-19T23:47:46.824Z,65.77
2022-10-19T23:50:13.325Z,65.94
2022-10-19T23:52:39.979Z,66.11
2022-10-19T23:55:08.045Z,66.11
2022-10-19T23:57:39.066Z,65.75
